Time;durP1;ratioP1;P1;durP2;ratioP2;P2;SDS_P1;SDS_P2;PMS_P1;PMS_P2;Temp;Humidity;BMP_temperature;BMP_pressure;BME280_temperature;BME280_humidity;BME280_pressure;Samples;Min_cycle;Max_cycle;Signal;HPM_P1;HPM_P2
2023/07/15 00:01:28;;;;;;;;;;;;;;;19.71;64.88;96067.16;5106929;28;19931;-70
2023/07/15 00:03:54;;;;;;;;;;;;;;;19.70;65.10;96067.41;5107087;28;19933;-70
2023/07/15 00:06:23;;;;;;;;;;;;;;;19.67;65.31;96074.09;5107560;28;19939;-70
2023/07/15 00:08:50;;;;;;;;;;;;;;;19.65;65.22;96063.75;5107295;28;19928;-71
2023/07/15 00:11:25;;;;;;;;;;;;;;;19.65;65.68;96074.38;5107189;28;19939;-72
2023/07/15 00:13:52;;;;;;;;;;;;;;;19.61;66.92;96078.69;5106615;28;19946;-72
2023/07/15 00:16:18;;;;;;;;;;;;;;;19.60;65.82;96068.31;5106635;28;19934;-71
2023/07/15 00:18:45;;;;;;;;;;;;;;;19.59;66.15;96070.19;5106434;28;20130;-71
2023/07/15 00:21:16;;;;;;;;;;;;;;;19.56;66.21;96065.44;5106496;28;20179;-71
2023/07/15 00:23:42;;;;;;;;;;;;;;;19.55;66.45;96069.19;5106538;28;19943;-71
2023/07/15 00:26:08;;;;;;;;;;;;;;;19.52;67.02;96063.63;5106371;28;19940;-70
2023/07/15 00:28:34;;;;;;;;;;;;;;;19.46;67.53;96063.72;5105246;28;19963;-76
2023/07/15 00:30:59;;;;;;;;;;;;;;;19.41;68.04;96061.09;5107061;28;19980;-76
2023/07/15 00:33:26;;;;;;;;;;;;;;;19.37;68.01;96065.38;5106256;28;19955;-77
2023/07/15 00:35:52;;;;;;;;;;;;;;;19.35;69.42;96072.06;5105056;28;19935;-76
2023/07/15 00:38:18;;;;;;;;;;;;;;;19.29;68.64;96073.97;5106693;28;19941;-77
2023/07/15 00:40:45;;;;;;;;;;;;;;;19.26;70.86;96087.84;5105724;28;19943;-76
2023/07/15 00:43:30;;;;;;;;;;;;;;;19.18;69.53;96070.66;5106046;28;19939;-76
2023/07/15 00:46:15;;;;;;;;;;;;;;;19.12;70.30;96077.09;5105672;28;19940;-74
2023/07/15 00:48:45;;;;;;;;;;;;;;;19.13;70.74;96062.75;5105910;28;19932;-72
2023/07/15 00:51:11;;;;;;;;;;;;;;;19.15;70.83;96075.72;5105898;28;19936;-72
2023/07/15 00:53:37;;;;;;;;;;;;;;;19.16;72.31;96079.97;5106162;28;19980;-71
2023/07/15 00:56:03;;;;;;;;;;;;;;;19.18;70.69;96068.00;5104632;28;20040;-72
2023/07/15 00:58:29;;;;;;;;;;;;;;;19.22;71.00;96069.00;5105818;28;19933;-71
2023/07/15 01:00:55;;;;;;;;;;;;;;;19.25;70.96;96065.00;5105962;28;19961;-71
2023/07/15 01:03:21;;;;;;;;;;;;;;;19.25;71.42;96075.63;5105693;28;20006;-72
2023/07/15 01:05:47;;;;;;;;;;;;;;;19.29;70.66;96065.22;5106456;28;19944;-70
2023/07/15 01:08:13;;;;;;;;;;;;;;;19.30;70.41;96069.44;5106336;28;19935;-70
2023/07/15 01:10:39;;;;;;;;;;;;;;;19.31;70.56;96071.84;5104694;28;19951;-70
2023/07/15 01:13:09;;;;;;;;;;;;;;;19.30;70.97;96074.78;5105741;28;19932;-70
2023/07/15 01:15:35;;;;;;;;;;;;;;;19.30;70.72;96075.59;5105468;28;20103;-70
2023/07/15 01:18:00;;;;;;;;;;;;;;;19.30;70.98;96074.78;5105447;28;20004;-70
2023/07/15 01:20:26;;;;;;;;;;;;;;;19.30;70.98;96072.09;5105334;28;19937;-72
2023/07/15 01:22:52;;;;;;;;;;;;;;;19.29;71.52;96073.19;5106146;28;19934;-72
2023/07/15 01:25:18;;;;;;;;;;;;;;;19.27;71.36;96074.25;5105248;28;20106;-77
2023/07/15 01:27:44;;;;;;;;;;;;;;;19.27;71.13;96079.56;5105941;28;19934;-77
2023/07/15 01:30:10;;;;;;;;;;;;;;;19.27;71.75;96079.56;5105614;28;20172;-77
2023/07/15 01:32:36;;;;;;;;;;;;;;;19.26;71.79;96077.22;5105633;28;19928;-76
2023/07/15 01:35:03;;;;;;;;;;;;;;;19.24;72.02;96071.41;5103898;28;19940;-77
2023/07/15 01:37:29;;;;;;;;;;;;;;;19.22;71.66;96079.63;5105032;28;19938;-76
2023/07/15 01:39:56;;;;;;;;;;;;;;;19.21;72.56;96082.56;5105036;28;19925;-70
2023/07/15 01:42:22;;;;;;;;;;;;;;;19.19;72.20;96072.25;5105421;28;20110;-76
2023/07/15 01:44:48;;;;;;;;;;;;;;;19.18;72.58;96075.97;5105732;28;19925;-76
2023/07/15 01:47:13;;;;;;;;;;;;;;;19.16;72.68;96078.09;5104836;28;19933;-77
2023/07/15 01:49:39;;;;;;;;;;;;;;;19.12;73.49;96077.09;5103550;28;19960;-77
2023/07/15 01:52:06;;;;;;;;;;;;;;;19.11;73.64;96080.84;5105349;28;19938;-76
2023/07/15 01:54:32;;;;;;;;;;;;;;;19.09;73.02;96077.66;5105281;28;19930;-76
2023/07/15 01:56:58;;;;;;;;;;;;;;;19.09;72.76;96067.03;5104990;28;19978;-76
2023/07/15 01:59:24;;;;;;;;;;;;;;;19.08;73.74;96068.09;5104415;28;19953;-72
2023/07/15 02:01:50;;;;;;;;;;;;;;;19.08;73.82;96069.97;5104622;28;19936;-76
2023/07/15 02:04:16;;;;;;;;;;;;;;;19.05;73.82;96064.13;5105446;28;19935;-77
2023/07/15 02:06:42;;;;;;;;;;;;;;;19.06;73.94;96063.03;5104631;28;19939;-76
2023/07/15 02:09:08;;;;;;;;;;;;;;;19.05;73.90;96063.34;5104397;28;19938;-76
2023/07/15 02:11:34;;;;;;;;;;;;;;;19.04;74.05;96054.56;5103967;28;19935;-76
2023/07/15 02:14:00;;;;;;;;;;;;;;;19.03;74.24;96060.19;5104498;28;20223;-76
2023/07/15 02:16:27;;;;;;;;;;;;;;;19.01;74.09;96060.44;5104416;28;20006;-71
2023/07/15 02:18:53;;;;;;;;;;;;;;;19.01;75.23;96054.34;5104352;28;19962;-72
2023/07/15 02:21:19;;;;;;;;;;;;;;;18.98;74.53;96049.59;5103535;28;19989;-72
2023/07/15 02:23:45;;;;;;;;;;;;;;;18.95;74.84;96050.16;5104340;28;19940;-72
2023/07/15 02:26:11;;;;;;;;;;;;;;;18.93;74.44;96041.69;5104341;28;19939;-71
2023/07/15 02:28:37;;;;;;;;;;;;;;;18.91;75.09;96041.94;5104355;28;19995;-71
2023/07/15 02:31:04;;;;;;;;;;;;;;;18.90;76.51;96047.53;5104475;28;19962;-73
2023/07/15 02:33:30;;;;;;;;;;;;;;;18.84;76.63;96047.59;5104266;28;19932;-71
2023/07/15 02:35:55;;;;;;;;;;;;;;;18.81;75.81;96042.03;5105092;28;20006;-76
2023/07/15 02:38:21;;;;;;;;;;;;;;;18.79;76.34;96034.38;5104465;28;19934;-70
2023/07/15 02:40:48;;;;;;;;;;;;;;;18.80;76.25;96033.28;5105015;28;19940;-70
2023/07/15 02:43:14;;;;;;;;;;;;;;;18.79;76.61;96037.03;5104151;28;19944;-70
2023/07/15 02:45:40;;;;;;;;;;;;;;;18.79;75.80;96029.06;5104167;28;19937;-70
2023/07/15 02:48:06;;;;;;;;;;;;;;;18.79;77.74;96044.19;5104421;28;19947;-70
2023/07/15 02:50:32;;;;;;;;;;;;;;;18.75;78.37;96046.59;5103147;28;19954;-70
2023/07/15 02:52:58;;;;;;;;;;;;;;;18.72;77.24;96039.16;5104081;28;19938;-71
2023/07/15 02:55:25;;;;;;;;;;;;;;;18.70;77.15;96036.00;5104057;28;20120;-76
2023/07/15 02:57:51;;;;;;;;;;;;;;;18.69;77.26;96038.94;5103944;28;19953;-70
2023/07/15 03:00:17;;;;;;;;;;;;;;;18.71;77.24;96031.47;5103981;28;19955;-70
2023/07/15 03:02:49;;;;;;;;;;;;;;;18.69;77.85;96031.78;5103450;28;20141;-70
2023/07/15 03:05:15;;;;;;;;;;;;;;;18.69;77.72;96033.63;5104583;28;19933;-70
2023/07/15 03:07:45;;;;;;;;;;;;;;;18.68;77.78;96040.81;5104463;28;19952;-70
2023/07/15 03:10:11;;;;;;;;;;;;;;;18.69;77.66;96034.44;5104077;28;19954;-70
2023/07/15 03:12:37;;;;;;;;;;;;;;;18.69;77.99;96033.63;5104727;28;19932;-72
2023/07/15 03:15:04;;;;;;;;;;;;;;;18.69;78.36;96038.94;5103856;28;19933;-73
2023/07/15 03:17:35;;;;;;;;;;;;;;;18.69;78.46;96030.97;5104047;28;20010;-72
2023/07/15 03:20:20;;;;;;;;;;;;;;;18.67;78.07;96036.56;5104386;28;19935;-72
2023/07/15 03:22:47;;;;;;;;;;;;;;;18.67;78.35;96034.72;5104381;28;19937;-72
2023/07/15 03:25:14;;;;;;;;;;;;;;;18.66;78.61;96032.31;5103751;28;19934;-72
2023/07/15 03:27:40;;;;;;;;;;;;;;;18.64;78.84;96037.91;5104313;28;19934;-72
2023/07/15 03:30:09;;;;;;;;;;;;;;;18.63;79.18;96031.03;5103661;28;19953;-71
2023/07/15 03:32:36;;;;;;;;;;;;;;;18.62;78.78;96028.63;5103977;28;19938;-72
2023/07/15 03:35:03;;;;;;;;;;;;;;;18.62;79.05;96034.72;5107787;28;20125;-72
2023/07/15 03:37:30;;;;;;;;;;;;;;;18.61;78.83;96024.41;5107642;28;19941;-72
2023/07/15 03:39:56;;;;;;;;;;;;;;;18.60;79.04;96034.22;5108123;28;19936;-73
2023/07/15 03:42:22;;;;;;;;;;;;;;;18.59;79.61;96032.66;5107805;28;19933;-72
2023/07/15 03:44:47;;;;;;;;;;;;;;;18.59;78.98;96034.53;5107233;28;20244;-72
2023/07/15 03:47:13;;;;;;;;;;;;;;;18.60;79.12;96036.09;5107155;28;19976;-72
2023/07/15 03:49:39;;;;;;;;;;;;;;;18.59;79.97;96034.53;5107158;28;19951;-70
2023/07/15 03:52:05;;;;;;;;;;;;;;;18.59;79.49;96031.88;5107065;28;19932;-71
2023/07/15 03:54:31;;;;;;;;;;;;;;;18.59;79.49;96026.56;5106008;28;19936;-70
2023/07/15 03:56:57;;;;;;;;;;;;;;;18.59;79.55;96027.34;5106961;28;19987;-71
2023/07/15 03:59:22;;;;;;;;;;;;;;;18.59;79.94;96030.00;5106882;28;19938;-70
2023/07/15 04:01:48;;;;;;;;;;;;;;;18.59;79.68;96030.00;5107728;28;19958;-71
2023/07/15 04:04:14;;;;;;;;;;;;;;;18.59;80.47;96026.56;5106847;28;20219;-71
2023/07/15 04:06:40;;;;;;;;;;;;;;;18.60;80.82;96028.13;5105761;28;19995;-71
2023/07/15 04:09:06;;;;;;;;;;;;;;;18.59;80.37;96027.34;5107057;28;19944;-70
2023/07/15 04:11:32;;;;;;;;;;;;;;;18.60;80.67;96028.13;5107206;28;19954;-70
2023/07/15 04:13:58;;;;;;;;;;;;;;;18.58;81.10;96017.81;5105645;28;19945;-70
2023/07/15 04:16:24;;;;;;;;;;;;;;;18.58;81.26;96025.78;5106590;28;19934;-70
2023/07/15 04:18:50;;;;;;;;;;;;;;;18.57;81.87;96020.72;5106516;28;19968;-69
2023/07/15 04:21:16;;;;;;;;;;;;;;;18.56;81.43;96014.63;5106537;28;19988;-70
2023/07/15 04:23:42;;;;;;;;;;;;;;;18.57;81.11;96007.44;5107088;28;20005;-70
2023/07/15 04:26:07;;;;;;;;;;;;;;;18.58;81.59;96011.69;5106397;28;19941;-73
2023/07/15 04:28:33;;;;;;;;;;;;;;;18.61;81.55;96006.59;5105224;28;19937;-72
2023/07/15 04:30:59;;;;;;;;;;;;;;;18.65;81.10;95999.66;5106293;28;19956;-72
2023/07/15 04:33:25;;;;;;;;;;;;;;;18.71;80.94;96008.38;5106777;28;20214;-72
2023/07/15 04:35:51;;;;;;;;;;;;;;;18.77;80.87;96007.25;5106266;28;19937;-72
2023/07/15 04:38:17;;;;;;;;;;;;;;;18.84;80.81;96012.28;5106755;28;20116;-72
2023/07/15 04:40:43;;;;;;;;;;;;;;;18.90;83.05;96024.44;5106667;28;19933;-72
2023/07/15 04:43:09;;;;;;;;;;;;;;;18.95;81.29;96012.97;5106656;28;20214;-71
2023/07/15 04:45:35;;;;;;;;;;;;;;;18.95;81.65;96015.63;5105950;28;19940;-72
2023/07/15 04:48:01;;;;;;;;;;;;;;;18.99;81.67;96011.31;5106507;28;19960;-77
2023/07/15 04:50:27;;;;;;;;;;;;;;;19.04;80.97;96014.69;5105306;28;20158;-77
2023/07/15 04:52:52;;;;;;;;;;;;;;;19.13;80.34;96012.25;5105880;28;20004;-77
2023/07/15 04:55:18;;;;;;;;;;;;;;;19.22;80.44;96013.19;5106609;28;19938;-77
2023/07/15 04:57:44;;;;;;;;;;;;;;;19.32;81.14;96016.78;5105311;28;19963;-77
2023/07/15 05:00:13;;;;;;;;;;;;;;;19.39;80.51;96018.03;5105694;28;19934;-77
2023/07/15 05:02:39;;;;;;;;;;;;;;;19.47;79.46;96009.44;5106529;28;19944;-71
2023/07/15 05:05:05;;;;;;;;;;;;;;;19.59;79.90;96019.66;5105935;28;19933;-71
2023/07/15 05:07:32;;;;;;;;;;;;;;;19.72;78.44;96020.03;5105825;28;19933;-71
2023/07/15 05:09:59;;;;;;;;;;;;;;;19.81;79.03;96019.13;5105481;28;19946;-70
2023/07/15 05:12:26;;;;;;;;;;;;;;;19.94;78.50;96009.63;5106022;28;19938;-70
2023/07/15 05:14:52;;;;;;;;;;;;;;;20.07;78.68;96013.44;5105654;28;19936;-70
2023/07/15 05:17:18;;;;;;;;;;;;;;;20.24;77.69;96012.91;5105228;28;19963;-70
2023/07/15 05:19:43;;;;;;;;;;;;;;;20.40;77.41;96013.47;5105642;28;19985;-74
2023/07/15 05:22:09;;;;;;;;;;;;;;;20.60;76.98;96013.16;5105276;28;19933;-71
2023/07/15 05:24:35;;;;;;;;;;;;;;;20.82;76.09;96003.72;5105812;28;19941;-72
2023/07/15 05:27:01;;;;;;;;;;;;;;;21.04;76.44;96022.53;5105212;28;19942;-72
2023/07/15 05:29:27;;;;;;;;;;;;;;;21.23;74.87;96006.44;5105973;28;19939;-72
2023/07/15 05:31:53;;;;;;;;;;;;;;;21.42;74.20;95997.56;5105626;28;19963;-72
2023/07/15 05:34:19;;;;;;;;;;;;;;;21.63;73.19;95988.03;5105091;28;19938;-72
2023/07/15 05:36:45;;;;;;;;;;;;;;;21.85;72.51;95976.59;5104003;28;19941;-72
2023/07/15 05:39:11;;;;;;;;;;;;;;;22.03;69.77;95950.84;5105864;28;19937;-70
2023/07/15 05:41:37;;;;;;;;;;;;;;;22.19;70.15;95948.56;5105517;28;20116;-71
2023/07/15 05:44:03;;;;;;;;;;;;;;;22.40;68.94;95940.88;5105719;28;19938;-71
2023/07/15 05:46:29;;;;;;;;;;;;;;;22.63;68.21;95938.16;5105688;28;19943;-71
2023/07/15 05:48:55;;;;;;;;;;;;;;;22.79;67.02;95917.94;5104811;28;19934;-72
2023/07/15 05:51:21;;;;;;;;;;;;;;;22.95;66.84;95922.88;5105039;28;19951;-71
2023/07/15 05:53:47;;;;;;;;;;;;;;;23.16;65.87;95913.22;5104779;28;19941;-71
2023/07/15 05:56:13;;;;;;;;;;;;;;;23.39;65.63;95907.72;5103384;28;19940;-73
2023/07/15 05:58:39;;;;;;;;;;;;;;;23.63;65.34;95904.63;5104759;28;19929;-72
2023/07/15 06:01:05;;;;;;;;;;;;;;;23.84;62.16;95894.88;5105213;28;20080;-71
2023/07/15 06:03:30;;;;;;;;;;;;;;;24.01;62.03;95901.31;5103396;28;20014;-72
2023/07/15 06:06:00;;;;;;;;;;;;;;;24.17;61.13;95889.00;5105110;28;19931;-71
2023/07/15 06:08:26;;;;;;;;;;;;;;;24.20;60.19;95906.31;5104498;28;20126;-72
2023/07/15 06:10:52;;;;;;;;;;;;;;;24.26;60.25;95910.41;5104465;28;19954;-72
2023/07/15 06:13:18;;;;;;;;;;;;;;;24.46;60.50;95909.72;5105280;28;19934;-72
2023/07/15 06:15:49;;;;;;;;;;;;;;;24.65;59.95;95909.38;5086547;28;20223;-73
2023/07/15 06:18:15;;;;;;;;;;;;;;;24.84;59.02;95902.81;5104280;28;19961;-71
2023/07/15 06:20:41;;;;;;;;;;;;;;;25.02;57.82;95900.84;5103278;28;19949;-70
2023/07/15 06:23:07;;;;;;;;;;;;;;;25.20;55.87;95896.13;5103711;28;19938;-71
2023/07/15 06:25:33;;;;;;;;;;;;;;;25.36;57.94;95907.13;5104356;28;19973;-72
2023/07/15 06:27:59;;;;;;;;;;;;;;;25.53;55.58;95888.19;5103840;28;19934;-71
2023/07/15 06:30:26;;;;;;;;;;;;;;;25.70;56.47;95889.97;5104200;28;20237;-70
2023/07/15 06:32:52;;;;;;;;;;;;;;;25.88;54.82;95891.38;5104559;28;20092;-71
2023/07/15 06:35:17;;;;;;;;;;;;;;;26.04;56.29;95898.84;5086832;28;19939;-74
2023/07/15 06:37:47;;;;;;;;;;;;;;;26.23;54.19;95890.31;5086258;28;19938;-71
2023/07/15 06:40:17;;;;;;;;;;;;;;;26.38;54.73;95900.41;5103104;28;19937;-71
2023/07/15 06:42:43;;;;;;;;;;;;;;;26.43;51.69;95886.75;5104999;28;19940;-71
2023/07/15 06:45:09;;;;;;;;;;;;;;;26.41;53.45;95905.09;5104147;28;19970;-71
2023/07/15 06:47:35;;;;;;;;;;;;;;;26.52;53.96;95900.09;5104674;28;19935;-71
2023/07/15 06:50:01;;;;;;;;;;;;;;;26.62;53.86;95905.06;5104022;28;20265;-71
2023/07/15 06:52:27;;;;;;;;;;;;;;;26.63;52.71;95887.03;5104627;28;19986;-73
2023/07/15 06:54:53;;;;;;;;;;;;;;;26.69;53.55;95905.31;5103057;28;19935;-71
2023/07/15 06:57:19;;;;;;;;;;;;;;;26.78;51.77;95896.34;5103401;28;19983;-71
2023/07/15 06:59:45;;;;;;;;;;;;;;;26.80;51.35;95897.56;5104723;28;19943;-71
2023/07/15 07:02:11;;;;;;;;;;;;;;;26.92;53.05;95902.16;5103993;28;20123;-71
2023/07/15 07:04:36;;;;;;;;;;;;;;;27.10;53.43;95900.81;5103950;28;20005;-71
2023/07/15 07:07:02;;;;;;;;;;;;;;;27.25;51.57;95891.28;5103961;28;19938;-71
2023/07/15 07:09:28;;;;;;;;;;;;;;;27.35;52.76;95900.03;5107582;28;19942;-70
2023/07/15 07:11:54;;;;;;;;;;;;;;;27.46;52.35;95903.81;5107754;28;19956;-71
2023/07/15 07:14:20;;;;;;;;;;;;;;;27.66;50.88;95904.78;5107783;28;19940;-71
2023/07/15 07:16:46;;;;;;;;;;;;;;;27.76;50.07;95914.28;5107621;28;19933;-71
2023/07/15 07:19:12;;;;;;;;;;;;;;;27.83;51.32;95917.19;5107339;28;19950;-71
2023/07/15 07:21:38;;;;;;;;;;;;;;;27.90;49.54;95914.72;5108525;28;19980;-71
2023/07/15 07:24:04;;;;;;;;;;;;;;;27.92;49.53;95912.47;5108118;28;19933;-71
2023/07/15 07:26:31;;;;;;;;;;;;;;;27.94;49.51;95919.06;5107547;28;20287;-71
2023/07/15 07:28:56;;;;;;;;;;;;;;;28.04;48.75;95917.81;5107503;28;20225;-74
2023/07/15 07:31:22;;;;;;;;;;;;;;;28.13;49.81;95923.03;5108191;28;19950;-78
2023/07/15 07:33:48;;;;;;;;;;;;;;;28.16;49.04;95908.88;5107086;28;19944;-70
2023/07/15 07:36:14;;;;;;;;;;;;;;;28.17;48.13;95909.66;5090196;28;19952;-70
2023/07/15 07:38:40;;;;;;;;;;;;;;;28.31;46.82;95899.25;5107370;28;19933;-71
2023/07/15 07:41:10;;;;;;;;;;;;;;;28.52;47.57;95907.91;5107365;28;19943;-71
2023/07/15 07:43:37;;;;;;;;;;;;;;;28.68;47.48;95905.19;5107231;28;20205;-71
2023/07/15 07:46:04;;;;;;;;;;;;;;;28.79;44.97;95893.88;5107670;28;19940;-71
2023/07/15 07:48:30;;;;;;;;;;;;;;;28.90;45.27;95901.13;5107865;28;19945;-74
2023/07/15 07:50:56;;;;;;;;;;;;;;;29.01;46.05;95900.59;5105862;28;19966;-73
2023/07/15 07:53:23;;;;;;;;;;;;;;;29.19;47.12;95904.50;5107884;28;20005;-73
2023/07/15 07:55:49;;;;;;;;;;;;;;;29.27;45.13;95906.22;5106929;28;19943;-73
2023/07/15 07:58:15;;;;;;;;;;;;;;;29.27;44.75;95894.63;5106921;28;19940;-73
2023/07/15 08:00:41;;;;;;;;;;;;;;;29.26;45.59;95899.25;5106902;28;19941;-73
2023/07/15 08:03:07;;;;;;;;;;;;;;;29.37;45.18;95899.47;5106893;28;20151;-73
2023/07/15 08:05:33;;;;;;;;;;;;;;;29.54;45.46;95899.06;5088581;28;19962;-72
2023/07/15 08:07:59;;;;;;;;;;;;;;;29.52;43.62;95906.78;5105318;28;19944;-72
2023/07/15 08:10:24;;;;;;;;;;;;;;;29.48;43.91;95899.69;5107132;28;19936;-71
2023/07/15 08:12:50;;;;;;;;;;;;;;;29.64;44.55;95913.94;5106969;28;19948;-71
2023/07/15 08:15:16;;;;;;;;;;;;;;;29.85;45.79;95913.63;5106252;28;19944;-71
2023/07/15 08:17:42;;;;;;;;;;;;;;;29.78;42.65;95907.28;5106520;28;19968;-71
2023/07/15 08:20:08;;;;;;;;;;;;;;;29.72;42.50;95910.28;5104785;28;19950;-73
2023/07/15 08:22:34;;;;;;;;;;;;;;;29.86;41.81;95911.69;5105479;28;19937;-71
2023/07/15 08:25:00;;;;;;;;;;;;;;;30.17;42.83;95912.69;5106893;28;19946;-72
2023/07/15 08:27:26;;;;;;;;;;;;;;;30.45;39.54;95902.41;5106103;28;19939;-71
2023/07/15 08:29:52;;;;;;;;;;;;;;;30.66;39.78;95904.69;5105689;28;20169;-72
2023/07/15 08:32:17;;;;;;;;;;;;;;;30.70;37.90;95904.75;5104529;28;19950;-71
2023/07/15 08:34:56;;;;;;;;;;;;;;;30.72;37.88;95913.28;5106426;28;19983;-71
2023/07/15 08:37:22;;;;;;;;;;;;;;;30.80;37.16;95906.84;5105018;28;19944;-71
2023/07/15 08:39:48;;;;;;;;;;;;;;;30.85;38.95;95914.66;5106825;28;19950;-71
2023/07/15 08:42:15;;;;;;;;;;;;;;;30.88;38.29;95905.84;5106480;28;19937;-73
2023/07/15 08:44:40;;;;;;;;;;;;;;;31.00;36.49;95907.59;5104599;28;19951;-72
2023/07/15 08:47:07;;;;;;;;;;;;;;;31.13;37.42;95906.22;5104109;28;19973;-72
2023/07/15 08:49:38;;;;;;;;;;;;;;;31.17;35.85;95908.22;5104184;28;20022;-73
2023/07/15 08:52:04;;;;;;;;;;;;;;;31.28;36.12;95901.78;5105724;28;20152;-73
2023/07/15 08:54:31;;;;;;;;;;;;;;;31.45;37.95;95897.00;5105639;28;19960;-72
2023/07/15 08:56:57;;;;;;;;;;;;;;;31.54;36.93;95897.50;5083779;28;20273;-71
2023/07/15 08:59:23;;;;;;;;;;;;;;;31.65;36.75;95898.44;5084526;28;19945;-72
2023/07/15 09:01:50;;;;;;;;;;;;;;;31.68;35.35;95896.91;5067780;28;19942;-76
2023/07/15 09:04:16;;;;;;;;;;;;;;;31.75;36.34;95903.22;5067036;28;20278;-72
2023/07/15 09:06:42;;;;;;;;;;;;;;;31.78;35.93;95901.69;5084117;28;19942;-71
2023/07/15 09:09:08;;;;;;;;;;;;;;;31.82;37.28;95902.50;5084089;28;19937;-71
2023/07/15 09:11:37;;;;;;;;;;;;;;;31.79;34.42;95895.09;5066885;28;20007;-71
2023/07/15 09:14:11;;;;;;;;;;;;;;;31.83;35.52;95895.16;5084270;28;19942;-71
2023/07/15 09:16:40;;;;;;;;;;;;;;;31.79;33.36;95894.31;5067343;28;20218;-72
2023/07/15 09:19:06;;;;;;;;;;;;;;;31.88;34.50;95889.41;5066518;28;19971;-74
2023/07/15 09:21:32;;;;;;;;;;;;;;;32.05;35.11;95894.28;5067351;28;20270;-73
2023/07/15 09:24:00;;;;;;;;;;;;;;;32.15;34.02;95890.91;5066077;28;20446;-71
2023/07/15 09:26:26;;;;;;;;;;;;;;;32.18;34.29;95899.44;5083833;28;19964;-71
2023/07/15 09:28:53;;;;;;;;;;;;;;;32.26;34.35;95893.72;5102888;28;20207;-71
2023/07/15 09:31:26;;;;;;;;;;;;;;;32.32;33.51;95894.94;5104238;28;19955;-71
2023/07/15 09:34:00;;;;;;;;;;;;;;;32.46;31.85;95885.38;5105328;28;19943;-71
2023/07/15 09:36:33;;;;;;;;;;;;;;;32.51;32.78;95891.25;5105853;28;19942;-71
2023/07/15 09:39:15;;;;;;;;;;;;;;;32.53;32.82;95886.25;5105856;28;19934;-75
2023/07/15 09:41:41;;;;;;;;;;;;;;;32.56;31.09;95882.78;5105512;28;20112;-73
2023/07/15 09:44:08;;;;;;;;;;;;;;;32.68;32.34;95895.28;5105779;28;19934;-72
2023/07/15 09:46:34;;;;;;;;;;;;;;;32.72;30.30;95896.09;5104840;28;19933;-74
2023/07/15 09:49:00;;;;;;;;;;;;;;;32.61;31.90;95897.94;5104502;28;19944;-74
2023/07/15 09:51:26;;;;;;;;;;;;;;;32.60;31.64;95890.19;5105048;28;20187;-73
2023/07/15 09:53:53;;;;;;;;;;;;;;;32.60;30.18;95882.81;5103618;28;19937;-73
2023/07/15 09:56:24;;;;;;;;;;;;;;;32.64;30.56;95869.28;5086613;28;19950;-77
2023/07/15 09:58:53;;;;;;;;;;;;;;;32.63;31.90;95876.63;5104408;28;20107;-72
2023/07/15 10:01:26;;;;;;;;;;;;;;;32.76;31.82;95879.84;5104249;28;19947;-71
2023/07/15 10:04:02;;;;;;;;;;;;;;;32.90;31.38;95873.72;5104977;28;19931;-71
2023/07/15 10:06:29;;;;;;;;;;;;;;;33.06;31.97;95874.22;5105448;28;19939;-71
2023/07/15 10:08:55;;;;;;;;;;;;;;;33.28;32.25;95874.38;5104242;28;19946;-73
2023/07/15 10:11:21;;;;;;;;;;;;;;;33.50;30.83;95867.91;5104430;28;20138;-71
2023/07/15 10:13:47;;;;;;;;;;;;;;;33.73;30.14;95875.78;5105303;28;19994;-72
2023/07/15 10:16:14;;;;;;;;;;;;;;;33.92;30.56;95882.06;5104968;28;19937;-74
2023/07/15 10:18:39;;;;;;;;;;;;;;;34.10;29.37;95871.22;5104388;28;19962;-73
2023/07/15 10:21:09;;;;;;;;;;;;;;;34.04;26.95;95873.56;5103515;28;19987;-73
2023/07/15 10:23:35;;;;;;;;;;;;;;;34.04;28.16;95875.47;5105121;28;19942;-74
2023/07/15 10:26:01;;;;;;;;;;;;;;;34.09;28.08;95870.44;5104842;28;20107;-74
2023/07/15 10:28:29;;;;;;;;;;;;;;;34.16;28.20;95869.72;5104298;28;19937;-74
2023/07/15 10:31:08;;;;;;;;;;;;;;;34.04;26.99;95864.59;5104815;28;19934;-74
2023/07/15 10:33:35;;;;;;;;;;;;;;;34.16;27.63;95865.03;5104450;28;20130;-74
2023/07/15 10:36:03;;;;;;;;;;;;;;;34.43;28.37;95861.97;5104155;28;19942;-73
2023/07/15 10:38:29;;;;;;;;;;;;;;;34.66;27.63;95860.84;5102935;28;19940;-73
2023/07/15 10:41:00;;;;;;;;;;;;;;;34.60;27.17;95865.09;5103139;28;19942;-74
2023/07/15 10:43:35;;;;;;;;;;;;;;;34.52;27.97;95862.38;5107005;28;20180;-73
2023/07/15 10:46:08;;;;;;;;;;;;;;;34.55;26.68;95861.59;5108274;28;19932;-74
2023/07/15 10:48:35;;;;;;;;;;;;;;;34.72;24.83;95862.00;5108201;28;20124;-75
2023/07/15 10:51:04;;;;;;;;;;;;;;;34.78;24.69;95854.25;5107837;28;19932;-73
2023/07/15 10:53:30;;;;;;;;;;;;;;;34.70;26.04;95853.47;5106939;28;19944;-74
2023/07/15 10:55:57;;;;;;;;;;;;;;;34.77;26.47;95856.16;5106930;28;19952;-74
2023/07/15 10:58:23;;;;;;;;;;;;;;;34.84;26.46;95856.19;5107564;28;19945;-72
2023/07/15 11:00:49;;;;;;;;;;;;;;;34.82;25.81;95849.53;5108110;28;19955;-73
2023/07/15 11:03:16;;;;;;;;;;;;;;;34.94;26.71;95836.31;5108536;28;20115;-71
2023/07/15 11:05:45;;;;;;;;;;;;;;;35.10;24.95;95837.84;5107937;28;20125;-71
2023/07/15 11:08:11;;;;;;;;;;;;;;;35.26;25.83;95838.22;5107885;28;19962;-72
2023/07/15 11:10:37;;;;;;;;;;;;;;;35.43;26.54;95831.13;5108734;28;20204;-74
2023/07/15 11:13:12;;;;;;;;;;;;;;;35.53;24.30;95824.88;5107729;28;19988;-76
2023/07/15 11:15:38;;;;;;;;;;;;;;;35.68;25.84;95828.34;5108319;28;19937;-76
2023/07/15 11:18:04;;;;;;;;;;;;;;;35.81;25.06;95816.97;5107565;28;20277;-76
2023/07/15 11:20:30;;;;;;;;;;;;;;;35.92;24.80;95814.94;5108448;28;19942;-76
2023/07/15 11:22:56;;;;;;;;;;;;;;;36.02;25.23;95796.97;5108194;28;19934;-77
2023/07/15 11:25:22;;;;;;;;;;;;;;;36.14;24.67;95799.22;5108096;28;19972;-76
2023/07/15 11:27:48;;;;;;;;;;;;;;;36.27;25.20;95794.09;5108301;28;19969;-78
2023/07/15 11:30:13;;;;;;;;;;;;;;;36.04;24.03;95794.63;5089344;28;20247;-76
2023/07/15 11:32:39;;;;;;;;;;;;;;;35.73;23.63;95791.69;5089929;28;19952;-73
2023/07/15 11:35:12;;;;;;;;;;;;;;;35.68;25.36;95806.50;5089195;28;19942;-73
2023/07/15 11:37:41;;;;;;;;;;;;;;;35.77;25.11;95803.34;5107094;28;19948;-74
2023/07/15 11:40:13;;;;;;;;;;;;;;;35.97;25.75;95801.66;5107555;28;19941;-72
2023/07/15 11:42:39;;;;;;;;;;;;;;;36.26;25.58;95785.09;5106639;28;19937;-73
2023/07/15 11:45:05;;;;;;;;;;;;;;;36.58;26.01;95784.84;5106484;28;19948;-73
2023/07/15 11:47:33;;;;;;;;;;;;;;;36.74;23.63;95770.66;5106228;28;19932;-74
2023/07/15 11:49:59;;;;;;;;;;;;;;;36.90;24.32;95764.63;5089485;28;19937;-74
2023/07/15 11:52:25;;;;;;;;;;;;;;;37.03;23.08;95767.63;5088493;28;19960;-74
2023/07/15 11:54:53;;;;;;;;;;;;;;;37.11;24.59;95760.16;5106470;28;19954;-74
2023/07/15 11:57:28;;;;;;;;;;;;;;;37.20;24.06;95757.69;5106773;28;20263;-74
2023/07/15 11:59:54;;;;;;;;;;;;;;;37.29;24.16;95746.25;5105480;28;20133;-74
2023/07/15 12:02:20;;;;;;;;;;;;;;;37.41;24.03;95742.19;5107412;28;19930;-73
2023/07/15 12:04:47;;;;;;;;;;;;;;;37.36;22.06;95730.53;5105759;28;20241;-80
2023/07/15 12:07:14;;;;;;;;;;;;;;;37.18;22.88;95730.75;5105707;28;19961;-72
2023/07/15 12:09:40;;;;;;;;;;;;;;;36.86;21.97;95735.81;5106781;28;19946;-72
2023/07/15 12:12:06;;;;;;;;;;;;;;;36.74;22.89;95728.91;5106579;28;20132;-72
2023/07/15 12:14:33;;;;;;;;;;;;;;;36.84;23.77;95727.25;5089412;28;19942;-72
2023/07/15 12:17:00;;;;;;;;;;;;;;;36.96;23.41;95719.28;5106831;28;20095;-72
2023/07/15 12:19:27;;;;;;;;;;;;;;;37.03;23.32;95712.19;5107131;28;19943;-72
2023/07/15 12:21:53;;;;;;;;;;;;;;;37.12;22.80;95707.00;5106396;28;19945;-72
2023/07/15 12:24:18;;;;;;;;;;;;;;;37.28;23.73;95703.69;5106367;28;19936;-73
2023/07/15 12:26:44;;;;;;;;;;;;;;;37.30;22.27;95702.09;5107099;28;20047;-81
2023/07/15 12:29:10;;;;;;;;;;;;;;;37.36;20.71;95696.94;5105131;28;20222;-81
2023/07/15 12:31:36;;;;;;;;;;;;;;;37.44;23.12;95697.59;5105815;28;19957;-80
2023/07/15 12:34:02;;;;;;;;;;;;;;;37.46;22.39;95685.06;5105992;28;20138;-79
2023/07/15 12:36:28;;;;;;;;;;;;;;;37.38;22.12;95689.09;5105161;28;19939;-79
2023/07/15 12:38:54;;;;;;;;;;;;;;;37.35;22.28;95693.41;5106140;28;19932;-79
2023/07/15 12:41:20;;;;;;;;;;;;;;;37.49;23.77;95683.47;5106598;28;19932;-79
2023/07/15 12:43:46;;;;;;;;;;;;;;;37.49;21.59;95684.25;5104982;28;19936;-71
2023/07/15 12:46:11;;;;;;;;;;;;;;;37.48;22.46;95676.44;5106850;28;19934;-72